Time;durP1;ratioP1;P1;durP2;ratioP2;P2;SDS_P1;SDS_P2;PMS_P1;PMS_P2;Temp;Humidity;BMP_temperature;BMP_pressure;BME280_temperature;BME280_humidity;BME280_pressure;Samples;Min_cycle;Max_cycle;Signal;HPM_P1;HPM_P2
2023/05/14 00:01:06;;;;;;;;;;;;;;;22.39;92.84;99111.63;5021721;28;20023;-41
2023/05/14 00:03:32;;;;;;;;;;;;;;;22.31;92.60;99112.22;5027057;28;19916;-41
2023/05/14 00:05:57;;;;;;;;;;;;;;;22.51;90.16;99085.25;5024791;28;20025;-42
2023/05/14 00:08:22;;;;;;;;;;;;;;;22.49;90.73;99097.66;5022779;28;19917;-41
2023/05/14 00:10:47;;;;;;;;;;;;;;;22.88;88.81;99079.63;5022687;28;19917;-41
2023/05/14 00:13:13;;;;;;;;;;;;;;;22.47;89.34;99088.22;5021634;28;19928;-41
2023/05/14 00:15:38;;;;;;;;;;;;;;;21.43;93.94;99123.31;5026273;28;19931;-41
2023/05/14 00:18:03;;;;;;;;;;;;;;;20.45;99.85;99154.78;5022528;28;19917;-40
2023/05/14 00:20:29;;;;;;;;;;;;;;;20.46;100.00;99154.69;5022536;28;19987;-41
2023/05/14 00:22:54;;;;;;;;;;;;;;;20.25;100.00;99148.31;5024299;28;20431;-41
2023/05/14 00:25:19;;;;;;;;;;;;;;;20.06;100.00;99157.44;5022998;28;19928;-41
2023/05/14 00:27:45;;;;;;;;;;;;;;;20.25;100.00;99143.09;5022454;28;20039;-40
2023/05/14 00:30:10;;;;;;;;;;;;;;;20.42;100.00;99134.91;5022196;28;20012;-40
2023/05/14 00:32:35;;;;;;;;;;;;;;;19.95;100.00;99136.41;5022493;28;20301;-40
2023/05/14 00:35:03;;;;;;;;;;;;;;;20.09;100.00;99129.41;5022361;28;20304;-40
2023/05/14 00:37:28;;;;;;;;;;;;;;;19.92;100.00;99138.44;5028089;28;19978;-41
2023/05/14 00:39:53;;;;;;;;;;;;;;;20.78;100.00;99117.56;5023303;28;19916;-40
2023/05/14 00:42:18;;;;;;;;;;;;;;;20.47;99.94;99114.47;5021863;28;19917;-40
2023/05/14 00:44:43;;;;;;;;;;;;;;;20.10;100.00;99116.25;5022370;28;19956;-40
2023/05/14 00:47:09;;;;;;;;;;;;;;;20.23;100.00;99110.97;5023540;28;19919;-40
2023/05/14 00:49:34;;;;;;;;;;;;;;;20.55;100.00;99095.63;5022243;28;19916;-40
2023/05/14 00:51:59;;;;;;;;;;;;;;;20.57;98.84;99092.91;5021533;28;19921;-40
2023/05/14 00:54:25;;;;;;;;;;;;;;;20.22;97.43;99085.78;5021417;28;20496;-40
2023/05/14 00:56:50;;;;;;;;;;;;;;;20.30;98.16;99083.47;5021786;28;20266;-40
2023/05/14 00:59:15;;;;;;;;;;;;;;;21.02;94.87;99056.50;5021905;28;19917;-40
2023/05/14 01:01:40;;;;;;;;;;;;;;;21.48;91.13;99039.94;5020622;28;20326;-40
2023/05/14 01:04:06;;;;;;;;;;;;;;;20.81;93.05;99064.16;5020801;28;19983;-40
2023/05/14 01:06:39;;;;;;;;;;;;;;;20.32;96.46;99086.81;5020991;28;20204;-40
2023/05/14 01:09:13;;;;;;;;;;;;;;;20.36;97.00;99080.41;5020965;28;19917;-40
2023/05/14 01:11:41;;;;;;;;;;;;;;;20.85;93.79;99050.72;5021264;28;20561;-41
2023/05/14 01:14:12;;;;;;;;;;;;;;;20.58;94.74;99063.22;5020334;28;19944;-40
2023/05/14 01:16:37;;;;;;;;;;;;;;;20.41;96.61;99083.53;5020774;28;20879;-40
2023/05/14 01:19:03;;;;;;;;;;;;;;;20.73;96.68;99071.72;5021645;28;19924;-40
2023/05/14 01:21:33;;;;;;;;;;;;;;;20.77;94.65;99053.06;5022065;28;20278;-40
2023/05/14 01:23:59;;;;;;;;;;;;;;;20.29;96.88;99076.56;5021289;28;20385;-40
2023/05/14 01:26:24;;;;;;;;;;;;;;;20.15;98.73;99089.78;5019775;28;19966;-40
2023/05/14 01:28:49;;;;;;;;;;;;;;;20.42;97.38;99068.69;5023857;28;19917;-40
2023/05/14 01:31:16;;;;;;;;;;;;;;;19.29;100.00;99108.66;5017825;28;20372;-40
2023/05/14 01:33:41;;;;;;;;;;;;;;;19.49;100.00;99099.50;5021538;28;20366;-40
2023/05/14 01:36:06;;;;;;;;;;;;;;;19.84;100.00;99089.28;5021859;28;19936;-41
2023/05/14 01:38:32;;;;;;;;;;;;;;;19.14;100.00;99116.56;5020542;28;19921;-40
2023/05/14 01:40:58;;;;;;;;;;;;;;;18.91;100.00;99119.84;5024112;28;19921;-40
2023/05/14 01:43:23;;;;;;;;;;;;;;;18.53;100.00;99117.84;5003147;28;20786;-40
2023/05/14 01:45:48;;;;;;;;;;;;;;;18.57;100.00;99129.78;5020444;28;20649;-40
2023/05/14 01:48:14;;;;;;;;;;;;;;;18.70;100.00;99107.19;5020562;28;20338;-40
2023/05/14 01:50:39;;;;;;;;;;;;;;;18.93;100.00;99107.50;5024321;28;19920;-40
2023/05/14 01:53:05;;;;;;;;;;;;;;;18.57;100.00;99106.31;5022065;28;19917;-40
2023/05/14 01:55:30;;;;;;;;;;;;;;;19.10;100.00;99088.97;5020906;28;19935;-40
2023/05/14 01:57:55;;;;;;;;;;;;;;;19.31;100.00;99081.50;5020453;28;20837;-40
2023/05/14 02:00:22;;;;;;;;;;;;;;;19.13;100.00;99088.75;5017879;28;20508;-40
2023/05/14 02:02:47;;;;;;;;;;;;;;;18.72;100.00;99092.25;5025973;28;19921;-40
2023/05/14 02:05:12;;;;;;;;;;;;;;;18.49;100.00;99096.34;5024187;28;20560;-40
2023/05/14 02:07:38;;;;;;;;;;;;;;;18.84;100.00;99082.00;5020480;28;19913;-40
2023/05/14 02:10:03;;;;;;;;;;;;;;;18.82;100.00;99079.50;5020837;28;20003;-40
2023/05/14 02:12:28;;;;;;;;;;;;;;;18.65;100.00;99088.38;5021341;28;19921;-40
2023/05/14 02:14:53;;;;;;;;;;;;;;;18.55;100.00;99077.69;5019814;28;20038;-40
2023/05/14 02:17:19;;;;;;;;;;;;;;;18.59;100.00;99073.13;5027813;28;19921;-40
2023/05/14 02:19:45;;;;;;;;;;;;;;;18.54;100.00;99086.47;5019727;28;19928;-40
2023/05/14 02:22:10;;;;;;;;;;;;;;;18.41;100.00;99084.75;5020314;28;19933;-40
2023/05/14 02:24:35;;;;;;;;;;;;;;;18.86;100.00;99059.25;5019943;28;19948;-40
2023/05/14 02:27:00;;;;;;;;;;;;;;;18.68;100.00;99066.47;5020098;28;19960;-40
2023/05/14 02:29:26;;;;;;;;;;;;;;;18.32;100.00;99091.34;5001508;28;19984;-40
2023/05/14 02:31:51;;;;;;;;;;;;;;;18.73;100.00;99070.47;5019238;28;20382;-40
2023/05/14 02:34:16;;;;;;;;;;;;;;;18.51;100.00;99064.94;5021479;28;19927;-41
2023/05/14 02:36:42;;;;;;;;;;;;;;;18.92;100.00;99069.31;5020478;28;19913;-41
2023/05/14 02:39:07;;;;;;;;;;;;;;;18.67;100.00;99067.41;5031028;28;19917;-40
2023/05/14 02:41:32;;;;;;;;;;;;;;;18.49;100.00;99066.81;5020885;28;19917;-41
2023/05/14 02:43:57;;;;;;;;;;;;;;;18.35;100.00;99080.72;5021363;28;20089;-40
2023/05/14 02:46:23;;;;;;;;;;;;;;;18.11;100.00;99072.66;5020956;28;19917;-40
2023/05/14 02:48:48;;;;;;;;;;;;;;;18.10;100.00;99091.84;5023564;28;19917;-40
2023/05/14 02:51:13;;;;;;;;;;;;;;;18.25;100.00;99080.47;5024736;28;20052;-40
2023/05/14 02:53:39;;;;;;;;;;;;;;;18.35;100.00;99086.78;5025771;28;19929;-40
2023/05/14 02:56:04;;;;;;;;;;;;;;;18.54;100.00;99069.97;5025337;28;19917;-40
2023/05/14 02:58:29;;;;;;;;;;;;;;;18.39;100.00;99072.63;5005893;28;19917;-40
2023/05/14 03:00:55;;;;;;;;;;;;;;;18.11;100.00;99077.88;5024156;28;19971;-40
2023/05/14 03:03:20;;;;;;;;;;;;;;;18.60;100.00;99065.19;5023164;28;20392;-40
2023/05/14 03:05:45;;;;;;;;;;;;;;;18.63;100.00;99053.72;5030277;28;19918;-42
2023/05/14 03:08:10;;;;;;;;;;;;;;;19.11;100.00;99035.84;5023993;28;20015;-40
2023/05/14 03:10:35;;;;;;;;;;;;;;;18.52;100.00;99057.03;5021980;28;19999;-40
2023/05/14 03:13:01;;;;;;;;;;;;;;;18.99;100.00;99039.25;5023286;28;19913;-40
2023/05/14 03:15:26;;;;;;;;;;;;;;;18.68;100.00;99045.59;5023394;28;20480;-40
2023/05/14 03:17:51;;;;;;;;;;;;;;;18.91;100.00;99044.16;5030507;28;19921;-40
2023/05/14 03:20:16;;;;;;;;;;;;;;;17.91;100.00;99079.09;5023310;28;19952;-40
2023/05/14 03:22:42;;;;;;;;;;;;;;;18.24;100.00;99068.34;5021809;28;19968;-40
2023/05/14 03:25:07;;;;;;;;;;;;;;;18.10;100.00;99060.56;5022988;28;19928;-40
2023/05/14 03:27:33;;;;;;;;;;;;;;;18.76;100.00;99053.78;5023405;28;19917;-40
2023/05/14 03:29:58;;;;;;;;;;;;;;;19.28;100.00;99023.44;5021690;28;19921;-40
2023/05/14 03:32:24;;;;;;;;;;;;;;;19.17;100.00;99027.59;5023182;28;20019;-40
2023/05/14 03:34:49;;;;;;;;;;;;;;;19.02;100.00;99033.81;5022764;28;19928;-40
2023/05/14 03:37:14;;;;;;;;;;;;;;;19.48;100.00;99009.00;5024389;28;19944;-40
2023/05/14 03:39:39;;;;;;;;;;;;;;;18.94;100.00;99031.72;5022474;28;19917;-40
2023/05/14 03:42:04;;;;;;;;;;;;;;;19.00;100.00;99030.50;5023051;28;20274;-40
2023/05/14 03:44:30;;;;;;;;;;;;;;;19.20;100.00;99019.56;5022285;28;20313;-40
2023/05/14 03:46:55;;;;;;;;;;;;;;;19.04;100.00;99020.69;5027756;28;19918;-40
2023/05/14 03:49:20;;;;;;;;;;;;;;;19.17;100.00;99017.16;5022639;28;19925;-40
2023/05/14 03:51:45;;;;;;;;;;;;;;;18.51;100.00;99039.69;5025466;28;19968;-40
2023/05/14 03:54:11;;;;;;;;;;;;;;;17.77;100.00;99069.50;5020143;28;19940;-40
2023/05/14 03:56:36;;;;;;;;;;;;;;;17.89;100.00;99063.56;5022825;28;20448;-40
2023/05/14 03:59:01;;;;;;;;;;;;;;;18.09;100.00;99064.13;5022243;28;19917;-40
2023/05/14 04:01:26;;;;;;;;;;;;;;;18.39;100.00;99051.75;5024465;28;19921;-40
2023/05/14 04:03:51;;;;;;;;;;;;;;;18.45;100.00;99053.16;5026979;28;19921;-40
2023/05/14 04:06:17;;;;;;;;;;;;;;;18.05;100.00;99057.41;5022049;28;20746;-40
2023/05/14 04:08:42;;;;;;;;;;;;;;;17.31;100.00;99098.25;5022551;28;20340;-40
2023/05/14 04:11:07;;;;;;;;;;;;;;;17.78;100.00;99071.16;5022326;28;19917;-40
2023/05/14 04:13:32;;;;;;;;;;;;;;;18.62;100.00;99046.84;5024347;28;19925;-40
2023/05/14 04:15:58;;;;;;;;;;;;;;;19.03;100.00;99040.72;5026357;28;19913;-40
2023/05/14 04:18:23;;;;;;;;;;;;;;;18.83;100.00;99044.66;5023544;28;19917;-40
2023/05/14 04:20:48;;;;;;;;;;;;;;;18.80;100.00;99050.06;5022367;28;19917;-40
2023/05/14 04:23:13;;;;;;;;;;;;;;;19.07;100.00;99039.59;5022482;28;19924;-40
2023/05/14 04:25:38;;;;;;;;;;;;;;;18.42;100.00;99039.47;5022138;28;19921;-40
2023/05/14 04:28:04;;;;;;;;;;;;;;;18.66;100.00;99045.72;5022058;28;19924;-40
2023/05/14 04:30:29;;;;;;;;;;;;;;;19.12;100.00;99029.69;5022082;28;20058;-40
2023/05/14 04:32:54;;;;;;;;;;;;;;;19.08;100.00;99028.19;5023396;28;19960;-40
2023/05/14 04:35:20;;;;;;;;;;;;;;;19.22;100.00;99020.28;5021667;28;19929;-40
2023/05/14 04:37:45;;;;;;;;;;;;;;;19.57;100.00;99024.91;5026204;28;19987;-40
2023/05/14 04:40:11;;;;;;;;;;;;;;;20.13;100.00;98992.31;5022128;28;19921;-40
2023/05/14 04:42:36;;;;;;;;;;;;;;;19.80;100.00;99009.44;5021346;28;20012;-40
2023/05/14 04:45:04;;;;;;;;;;;;;;;20.08;100.00;99004.88;5023278;28;20451;-40
2023/05/14 04:47:29;;;;;;;;;;;;;;;18.98;100.00;99027.16;5021690;28;19921;-40
2023/05/14 04:49:54;;;;;;;;;;;;;;;18.15;100.00;99071.53;5021951;28;19917;-40
2023/05/14 04:52:19;;;;;;;;;;;;;;;19.14;100.00;99037.41;5021902;28;20154;-40
2023/05/14 04:54:44;;;;;;;;;;;;;;;17.39;100.00;99075.22;5025544;28;19936;-40
2023/05/14 04:57:10;;;;;;;;;;;;;;;17.24;100.00;99083.91;5021885;28;19964;-40
2023/05/14 04:59:35;;;;;;;;;;;;;;;18.24;100.00;99067.53;5021633;28;19917;-40
2023/05/14 05:02:00;;;;;;;;;;;;;;;17.14;100.00;99074.03;5021155;28;19921;-40
2023/05/14 05:04:26;;;;;;;;;;;;;;;17.93;100.00;99074.66;5023026;28;19970;-40
2023/05/14 05:06:51;;;;;;;;;;;;;;;17.13;100.00;99088.00;5021610;28;19960;-41
2023/05/14 05:09:17;;;;;;;;;;;;;;;18.57;100.00;99067.19;5021198;28;19974;-40
2023/05/14 05:11:42;;;;;;;;;;;;;;;17.69;100.00;99071.72;5020988;28;20530;-40
2023/05/14 05:14:07;;;;;;;;;;;;;;;17.87;100.00;99073.22;5020559;28;19925;-40
2023/05/14 05:16:33;;;;;;;;;;;;;;;17.26;100.00;99090.69;5020610;28;19979;-40
2023/05/14 05:18:58;;;;;;;;;;;;;;;17.97;100.00;99095.22;5026164;28;19916;-40
2023/05/14 05:21:23;;;;;;;;;;;;;;;17.20;100.00;99100.66;5021168;28;20980;-40
2023/05/14 05:23:48;;;;;;;;;;;;;;;17.62;100.00;99099.88;5020762;28;19924;-40
2023/05/14 05:26:14;;;;;;;;;;;;;;;18.51;100.00;99081.44;5020217;28;20032;-40
2023/05/14 05:28:39;;;;;;;;;;;;;;;18.83;100.00;99065.53;5021097;28;19920;-40
2023/05/14 05:31:04;;;;;;;;;;;;;;;17.95;100.00;99088.41;5019344;28;19951;-40
2023/05/14 05:33:29;;;;;;;;;;;;;;;18.38;100.00;99070.09;5020621;28;20285;-40
2023/05/14 05:35:55;;;;;;;;;;;;;;;18.40;100.00;99086.47;5021524;28;20250;-40
2023/05/14 05:38:20;;;;;;;;;;;;;;;20.11;100.00;99044.69;5023568;28;19981;-40
2023/05/14 05:40:45;;;;;;;;;;;;;;;20.53;100.00;99012.97;5020459;28;19925;-40
2023/05/14 05:43:12;;;;;;;;;;;;;;;19.78;100.00;99042.69;5020686;28;20059;-40
2023/05/14 05:45:37;;;;;;;;;;;;;;;19.60;100.00;99045.56;5020257;28;19913;-40
2023/05/14 05:48:03;;;;;;;;;;;;;;;21.37;100.00;99018.94;5020325;28;19917;-40
2023/05/14 05:50:29;;;;;;;;;;;;;;;21.75;100.00;99005.53;5022542;28;19928;-40
2023/05/14 05:52:54;;;;;;;;;;;;;;;21.81;100.00;98991.13;5023388;28;19962;-40
2023/05/14 05:55:19;;;;;;;;;;;;;;;21.34;100.00;99006.09;5022515;28;19924;-40
2023/05/14 05:57:44;;;;;;;;;;;;;;;21.97;100.00;98991.59;5020253;28;19921;-40
2023/05/14 06:00:13;;;;;;;;;;;;;;;21.56;100.00;98992.22;5020280;28;20317;-40
2023/05/14 06:02:39;;;;;;;;;;;;;;;21.05;100.00;99033.53;5026117;28;19921;-40
2023/05/14 06:05:05;;;;;;;;;;;;;;;22.75;100.00;98982.63;5019516;28;19925;-40
2023/05/14 06:07:30;;;;;;;;;;;;;;;23.22;94.99;98963.03;5019996;28;19982;-40
2023/05/14 06:09:56;;;;;;;;;;;;;;;21.12;100.00;99039.16;5020529;28;19921;-40
2023/05/14 06:12:21;;;;;;;;;;;;;;;20.87;100.00;99035.75;5019910;28;20387;-40
2023/05/14 06:14:46;;;;;;;;;;;;;;;21.91;100.00;99019.09;5019237;28;19924;-40
2023/05/14 06:17:12;;;;;;;;;;;;;;;22.24;100.00;99011.38;5022003;28;19921;-40
2023/05/14 06:19:37;;;;;;;;;;;;;;;21.38;99.20;99016.22;5020202;28;19928;-40
2023/05/14 06:22:02;;;;;;;;;;;;;;;21.46;100.00;99020.88;5020026;28;19917;-40
2023/05/14 06:24:28;;;;;;;;;;;;;;;22.49;100.00;99003.16;5019959;28;19965;-40
2023/05/14 06:26:53;;;;;;;;;;;;;;;23.45;95.35;98979.50;5018128;28;19935;-40
2023/05/14 06:29:18;;;;;;;;;;;;;;;25.04;90.04;98949.53;5022486;28;19947;-40
2023/05/14 06:31:44;;;;;;;;;;;;;;;24.03;93.76;98989.41;5019953;28;19979;-41
2023/05/14 06:34:09;;;;;;;;;;;;;;;23.01;96.58;99002.47;5019299;28;19921;-40
2023/05/14 06:36:34;;;;;;;;;;;;;;;23.14;95.22;98997.84;5019313;28;19931;-40
2023/05/14 06:39:00;;;;;;;;;;;;;;;22.36;94.51;98992.00;5024346;28;20043;-40
2023/05/14 06:41:25;;;;;;;;;;;;;;;24.33;92.22;98960.34;5021555;28;20008;-40
2023/05/14 06:43:50;;;;;;;;;;;;;;;24.57;86.66;98938.09;5019379;28;19921;-41
2023/05/14 06:46:15;;;;;;;;;;;;;;;22.39;92.41;99002.22;5017152;28;19919;-40
2023/05/14 06:48:41;;;;;;;;;;;;;;;24.18;88.99;98959.94;5022145;28;19921;-41
2023/05/14 06:51:06;;;;;;;;;;;;;;;23.87;92.35;98987.28;5019724;28;19921;-40
2023/05/14 06:53:31;;;;;;;;;;;;;;;24.47;92.08;98981.97;5019145;28;20265;-41
2023/05/14 06:55:56;;;;;;;;;;;;;;;23.46;94.95;99012.69;5018077;28;19917;-40
2023/05/14 06:58:21;;;;;;;;;;;;;;;22.39;97.89;99017.97;5018833;28;19925;-41
2023/05/14 07:00:47;;;;;;;;;;;;;;;21.57;100.00;99051.53;5020748;28;20012;-40
2023/05/14 07:03:12;;;;;;;;;;;;;;;21.65;100.00;99047.38;5019276;28;19999;-40
2023/05/14 07:05:39;;;;;;;;;;;;;;;22.70;99.90;99016.31;5022674;28;19917;-41
2023/05/14 07:08:04;;;;;;;;;;;;;;;22.55;100.00;99028.88;5019859;28;20409;-41
2023/05/14 07:10:30;;;;;;;;;;;;;;;22.89;100.00;99041.88;5022762;28;19968;-40
2023/05/14 07:12:55;;;;;;;;;;;;;;;24.08;100.00;99008.25;5020013;28;19983;-41
2023/05/14 07:15:20;;;;;;;;;;;;;;;23.99;98.95;99007.25;5021703;28;19944;-40
2023/05/14 07:17:46;;;;;;;;;;;;;;;23.80;100.00;99026.44;5021237;28;19917;-41
2023/05/14 07:20:11;;;;;;;;;;;;;;;24.20;100.00;99026.44;5022726;28;19921;-40
2023/05/14 07:22:37;;;;;;;;;;;;;;;24.42;100.00;99011.34;5027492;28;19939;-41
2023/05/14 07:25:02;;;;;;;;;;;;;;;23.46;100.00;99046.88;5019078;28;19921;-41
2023/05/14 07:27:27;;;;;;;;;;;;;;;24.20;98.10;98989.59;5018964;28;19968;-41
2023/05/14 07:29:52;;;;;;;;;;;;;;;22.54;100.00;99053.50;5020977;28;19921;-41
2023/05/14 07:32:18;;;;;;;;;;;;;;;22.79;100.00;99061.19;5021151;28;19913;-40
2023/05/14 07:34:43;;;;;;;;;;;;;;;22.66;100.00;99037.69;5020155;28;19964;-41
2023/05/14 07:37:08;;;;;;;;;;;;;;;22.32;100.00;99074.53;5026139;28;19916;-41
2023/05/14 07:39:33;;;;;;;;;;;;;;;23.23;100.00;99049.63;5023444;28;19932;-41
2023/05/14 07:41:59;;;;;;;;;;;;;;;23.24;100.00;99034.69;5029064;28;19995;-42
2023/05/14 07:44:24;;;;;;;;;;;;;;;24.37;100.00;99008.31;5024011;28;19917;-41
2023/05/14 07:46:50;;;;;;;;;;;;;;;24.32;100.00;99021.03;5022638;28;20044;-41
2023/05/14 07:49:15;;;;;;;;;;;;;;;24.37;100.00;99013.56;5022933;28;20358;-41
2023/05/14 07:51:40;;;;;;;;;;;;;;;24.58;100.00;99000.31;5025288;28;20586;-41
2023/05/14 07:54:05;;;;;;;;;;;;;;;25.21;100.00;98976.13;5021349;28;20865;-41
2023/05/14 07:56:31;;;;;;;;;;;;;;;22.20;100.00;99054.50;5022612;28;19924;-41
2023/05/14 07:58:56;;;;;;;;;;;;;;;24.63;100.00;99006.84;5022794;28;20362;-41
2023/05/14 08:01:21;;;;;;;;;;;;;;;23.90;100.00;99010.69;5021085;28;19921;-39
2023/05/14 08:03:47;;;;;;;;;;;;;;;25.19;97.46;98947.28;5028644;28;19921;-39
2023/05/14 08:06:12;;;;;;;;;;;;;;;25.02;100.00;98971.69;5022593;28;19924;-39
2023/05/14 08:08:37;;;;;;;;;;;;;;;25.69;95.02;98953.19;5022288;28;19924;-39
2023/05/14 08:11:02;;;;;;;;;;;;;;;26.35;93.72;98944.19;5022846;28;19921;-39
2023/05/14 08:13:28;;;;;;;;;;;;;;;23.34;98.22;98994.38;5024440;28;19946;-39
2023/05/14 08:15:53;;;;;;;;;;;;;;;24.65;97.65;98961.09;5022338;28;20467;-39
2023/05/14 08:18:18;;;;;;;;;;;;;;;23.76;98.64;98972.44;5021963;28;19964;-39
2023/05/14 08:20:43;;;;;;;;;;;;;;;24.37;98.85;98971.44;5022022;28;20062;-39
2023/05/14 08:23:08;;;;;;;;;;;;;;;24.44;95.40;98951.50;5026572;28;19984;-39
2023/05/14 08:25:34;;;;;;;;;;;;;;;23.79;99.87;98983.53;5021727;28;19979;-39
2023/05/14 08:27:59;;;;;;;;;;;;;;;24.55;94.11;98943.50;5022356;28;19928;-39
2023/05/14 08:30:24;;;;;;;;;;;;;;;24.15;97.27;98972.53;5022009;28;20400;-39
2023/05/14 08:32:50;;;;;;;;;;;;;;;25.97;89.51;98909.16;5021842;28;20198;-39
2023/05/14 08:35:15;;;;;;;;;;;;;;;24.63;90.68;98938.38;5025371;28;20012;-39
2023/05/14 08:37:40;;;;;;;;;;;;;;;23.52;93.45;98960.44;5021913;28;20575;-39
2023/05/14 08:40:07;;;;;;;;;;;;;;;24.20;90.60;98931.69;5021884;28;19965;-39
2023/05/14 08:42:32;;;;;;;;;;;;;;;25.12;83.83;98884.72;5021508;28;19917;-39
2023/05/14 08:45:02;;;;;;;;;;;;;;;24.28;86.76;98909.13;5026035;28;20039;-39
2023/05/14 08:47:27;;;;;;;;;;;;;;;23.84;86.80;98911.31;5023843;28;19924;-39
2023/05/14 08:50:03;;;;;;;;;;;;;;;25.41;85.25;98896.00;5021780;28;19917;-39
2023/05/14 08:52:28;;;;;;;;;;;;;;;26.64;80.13;98854.97;5020454;28;20333;-40
2023/05/14 08:54:53;;;;;;;;;;;;;;;25.13;80.87;98881.94;5019588;28;19921;-40
2023/05/14 08:57:19;;;;;;;;;;;;;;;24.74;82.28;98886.50;5021477;28;19920;-40
2023/05/14 08:59:45;;;;;;;;;;;;;;;26.29;80.87;98858.47;5025206;28;19928;-40
2023/05/14 09:02:10;;;;;;;;;;;;;;;26.03;79.31;98855.81;5019921;28;19925;-40
2023/05/14 09:04:35;;;;;;;;;;;;;;;25.23;82.34;98895.13;5019577;28;20354;-40
2023/05/14 09:07:01;;;;;;;;;;;;;;;24.89;77.95;98853.47;5020085;28;20019;-40
2023/05/14 09:09:26;;;;;;;;;;;;;;;24.20;82.87;98886.97;5024146;28;20007;-40
2023/05/14 09:11:52;;;;;;;;;;;;;;;26.14;78.08;98837.09;5021357;28;19920;-40
2023/05/14 09:14:17;;;;;;;;;;;;;;;26.60;75.37;98831.69;5027227;28;19928;-40
2023/05/14 09:16:47;;;;;;;;;;;;;;;26.27;80.16;98863.94;5022133;28;19921;-40
2023/05/14 09:19:13;;;;;;;;;;;;;;;26.26;78.14;98846.41;5026536;28;19924;-40
2023/05/14 09:21:39;;;;;;;;;;;;;;;25.40;73.59;98833.69;5019553;28;19917;-40
2023/05/14 09:24:04;;;;;;;;;;;;;;;26.91;72.52;98816.13;5020759;28;19917;-40
2023/05/14 09:26:33;;;;;;;;;;;;;;;25.37;77.39;98860.38;5020489;28;19917;-40
2023/05/14 09:29:02;;;;;;;;;;;;;;;24.70;78.16;98862.28;5020821;28;19917;-40
2023/05/14 09:31:30;;;;;;;;;;;;;;;25.33;75.35;98847.63;5025013;28;20125;-40
2023/05/14 09:33:56;;;;;;;;;;;;;;;26.05;73.68;98827.44;5020689;28;19992;-40
2023/05/14 09:36:21;;;;;;;;;;;;;;;25.09;75.04;98848.09;5018607;28;20398;-40
2023/05/14 09:38:47;;;;;;;;;;;;;;;27.43;66.82;98800.16;5018733;28;19958;-40
2023/05/14 09:41:12;;;;;;;;;;;;;;;25.88;66.55;98794.81;5020612;28;19921;-40
2023/05/14 09:43:37;;;;;;;;;;;;;;;27.01;62.67;98782.50;5020379;28;20706;-40
2023/05/14 09:46:03;;;;;;;;;;;;;;;27.75;68.43;98817.06;5019512;28;20309;-40
2023/05/14 09:48:28;;;;;;;;;;;;;;;26.46;65.82;98809.28;5024656;28;19917;-40
2023/05/14 09:50:53;;;;;;;;;;;;;;;26.48;68.18;98817.88;5024025;28;20482;-40
2023/05/14 09:53:18;;;;;;;;;;;;;;;25.48;73.01;98840.03;5022970;28;19921;-40
2023/05/14 09:55:44;;;;;;;;;;;;;;;25.75;74.83;98840.00;5021536;28;20011;-40
2023/05/14 09:58:09;;;;;;;;;;;;;;;24.68;73.67;98837.03;5026001;28;19917;-40
2023/05/14 10:00:34;;;;;;;;;;;;;;;26.02;74.92;98827.72;5026469;28;19939;-40
2023/05/14 10:03:04;;;;;;;;;;;;;;;27.50;64.88;98771.25;5019314;28;19932;-40
2023/05/14 10:05:29;;;;;;;;;;;;;;;27.19;64.05;98773.66;5020009;28;19963;-41
2023/05/14 10:07:55;;;;;;;;;;;;;;;26.77;66.05;98785.84;5002503;28;20468;-41
2023/05/14 10:10:21;;;;;;;;;;;;;;;27.94;65.39;98782.41;5026004;28;19925;-41
2023/05/14 10:12:50;;;;;;;;;;;;;;;27.35;68.59;98805.44;5025808;28;19917;-40
2023/05/14 10:15:16;;;;;;;;;;;;;;;27.77;64.66;98780.69;5019382;28;20016;-40
2023/05/14 10:17:43;;;;;;;;;;;;;;;27.89;61.44;98760.88;5018281;28;20978;-40
2023/05/14 10:20:08;;;;;;;;;;;;;;;26.57;62.54;98769.44;5020020;28;20023;-40
2023/05/14 10:22:34;;;;;;;;;;;;;;;26.46;65.54;98788.16;5021901;28;19929;-40
2023/05/14 10:24:59;;;;;;;;;;;;;;;28.22;65.16;98771.44;5018552;28;19971;-40
2023/05/14 10:27:25;;;;;;;;;;;;;;;29.02;59.22;98736.09;5021792;28;19917;-40
2023/05/14 10:29:52;;;;;;;;;;;;;;;28.73;63.81;98768.53;5018996;28;19921;-40
2023/05/14 10:32:17;;;;;;;;;;;;;;;29.15;65.12;98765.56;5021074;28;20075;-40
2023/05/14 10:34:43;;;;;;;;;;;;;;;27.03;63.32;98772.59;5018161;28;20529;-40
2023/05/14 10:37:11;;;;;;;;;;;;;;;25.84;69.19;98794.25;5020136;28;19985;-40
2023/05/14 10:39:40;;;;;;;;;;;;;;;27.21;61.82;98739.94;5019811;28;19985;-40
2023/05/14 10:42:05;;;;;;;;;;;;;;;27.12;68.87;98786.66;5019207;28;20011;-40
2023/05/14 10:44:31;;;;;;;;;;;;;;;27.67;64.99;98758.88;5022907;28;20016;-41
2023/05/14 10:46:56;;;;;;;;;;;;;;;25.98;67.15;98785.00;5018191;28;19964;-40
2023/05/14 10:49:21;;;;;;;;;;;;;;;28.40;65.70;98762.50;5017970;28;19959;-41
2023/05/14 10:51:48;;;;;;;;;;;;;;;27.43;58.82;98731.38;5017174;28;19929;-40
2023/05/14 10:54:14;;;;;;;;;;;;;;;28.74;57.54;98722.50;5027107;28;19960;-41
2023/05/14 10:56:39;;;;;;;;;;;;;;;28.61;55.57;98712.44;5019512;28;20747;-41
2023/05/14 10:59:04;;;;;;;;;;;;;;;30.03;61.40;98740.38;5018072;28;20008;-41
2023/05/14 11:01:29;;;;;;;;;;;;;;;29.58;61.03;98728.81;5018294;28;19921;-41
2023/05/14 11:03:56;;;;;;;;;;;;;;;28.42;58.00;98707.50;5004248;28;19924;-41
2023/05/14 11:06:22;;;;;;;;;;;;;;;28.97;61.96;98726.03;5024218;28;19935;-41
2023/05/14 11:08:47;;;;;;;;;;;;;;;31.57;50.40;98673.19;5018939;28;19917;-41
2023/05/14 11:11:12;;;;;;;;;;;;;;;28.15;59.60;98728.94;5024776;28;19986;-40
2023/05/14 11:13:38;;;;;;;;;;;;;;;29.13;63.35;98730.44;5023924;28;19921;-41
2023/05/14 11:16:03;;;;;;;;;;;;;;;28.65;59.81;98707.63;5022255;28;19925;-41
2023/05/14 11:18:29;;;;;;;;;;;;;;;26.95;60.81;98740.03;5026070;28;19952;-41
2023/05/14 11:21:00;;;;;;;;;;;;;;;29.92;50.53;98665.66;5023518;28;19979;-41
2023/05/14 11:23:25;;;;;;;;;;;;;;;30.60;50.43;98677.84;5023631;28;19928;-41
2023/05/14 11:25:51;;;;;;;;;;;;;;;29.63;52.69;98684.97;5022925;28;19921;-42
2023/05/14 11:28:16;;;;;;;;;;;;;;;29.05;55.37;98698.63;5023421;28;19921;-41
2023/05/14 11:30:42;;;;;;;;;;;;;;;27.70;57.58;98710.91;5023434;28;19925;-41
2023/05/14 11:33:07;;;;;;;;;;;;;;;29.49;53.62;98679.47;5022964;28;19952;-41
2023/05/14 11:35:32;;;;;;;;;;;;;;;28.02;60.06;98722.50;5022041;28;20011;-41
2023/05/14 11:37:57;;;;;;;;;;;;;;;30.05;59.03;98710.19;5022824;28;20008;-41
2023/05/14 11:40:22;;;;;;;;;;;;;;;28.69;58.44;98703.63;5022659;28;20062;-41
2023/05/14 11:42:49;;;;;;;;;;;;;;;29.60;53.63;98688.81;5023103;28;20015;-41
2023/05/14 11:45:23;;;;;;;;;;;;;;;28.11;56.73;98695.84;5016216;28;19920;-41
2023/05/14 11:47:48;;;;;;;;;;;;;;;29.24;59.09;98709.81;5025116;28;19913;-40
2023/05/14 11:50:14;;;;;;;;;;;;;;;28.35;57.03;98697.59;5021584;28;20775;-40
2023/05/14 11:52:39;;;;;;;;;;;;;;;29.50;48.61;98643.97;5019527;28;20436;-41
2023/05/14 11:55:05;;;;;;;;;;;;;;;28.45;52.45;98675.38;5024643;28;19925;-41
2023/05/14 11:57:30;;;;;;;;;;;;;;;30.00;51.41;98661.09;5021548;28;19975;-41
2023/05/14 11:59:56;;;;;;;;;;;;;;;29.33;53.34;98674.28;5022156;28;19917;-41
2023/05/14 12:02:22;;;;;;;;;;;;;;;30.17;53.23;98668.88;5018940;28;19924;-41
2023/05/14 12:04:53;;;;;;;;;;;;;;;30.50;52.36;98668.53;5021037;28;19970;-41
2023/05/14 12:07:18;;;;;;;;;;;;;;;28.00;54.40;98688.25;5021794;28;20000;-41
2023/05/14 12:09:50;;;;;;;;;;;;;;;30.55;52.68;98668.81;5021414;28;19927;-41
2023/05/14 12:12:21;;;;;;;;;;;;;;;30.01;56.79;98689.28;5026067;28;20477;-42
2023/05/14 12:14:46;;;;;;;;;;;;;;;29.65;55.25;98685.63;5021896;28;19925;-41
2023/05/14 12:17:16;;;;;;;;;;;;;;;29.73;54.92;98674.97;5019837;28;19923;-41
2023/05/14 12:19:42;;;;;;;;;;;;;;;29.98;58.73;98694.97;5020781;28;19963;-41
2023/05/14 12:22:08;;;;;;;;;;;;;;;29.85;53.37;98654.13;5021335;28;19956;-41
2023/05/14 12:24:33;;;;;;;;;;;;;;;30.26;55.03;98675.75;5019421;28;19921;-41
2023/05/14 12:26:59;;;;;;;;;;;;;;;28.67;58.68;98695.88;5020879;28;19920;-40
2023/05/14 12:29:24;;;;;;;;;;;;;;;30.31;49.34;98630.06;5022081;28;20004;-41
2023/05/14 12:31:50;;;;;;;;;;;;;;;32.25;47.88;98628.16;5023293;28;20652;-41